createdAt,value
2023-02-21T00:29:25.733Z,972.9
2023-02-21T00:59:25.629Z,972.72
2023-02-21T01:29:25.420Z,972.63
2023-02-21T01:59:25.293Z,972.36
2023-02-21T02:29:25.393Z,972.29
2023-02-21T02:59:25.451Z,972.12
2023-02-21T03:29:25.130Z,972.12
2023-02-21T03:59:25.592Z,972.06
2023-02-21T04:29:25.152Z,972.1
2023-02-21T05:29:25.096Z,971.92
2023-02-21T05:59:25.176Z,971.82
2023-02-21T06:29:25.023Z,971.84
2023-02-21T06:59:25.807Z,972.0
2023-02-21T07:29:25.558Z,972.04
2023-02-21T07:59:26.203Z,971.92
2023-02-21T08:29:25.101Z,971.69
2023-02-21T08:59:25.005Z,971.58
2023-02-21T09:29:34.184Z,971.44
2023-02-21T09:59:26.105Z,971.13
2023-02-21T10:29:25.078Z,970.87
2023-02-21T10:59:24.913Z,970.5
2023-02-21T11:29:25.520Z,969.82
2023-02-21T12:29:24.465Z,969.16
2023-02-21T13:29:24.421Z,968.09
2023-02-21T13:59:24.542Z,967.21
2023-02-21T14:29:25.206Z,966.94
2023-02-21T14:59:24.349Z,966.7
2023-02-21T15:59:24.596Z,966.46
2023-02-21T16:29:30.272Z,966.33
2023-02-21T16:59:24.540Z,966.38
2023-02-21T17:29:24.811Z,966.53
2023-02-21T17:59:24.225Z,966.69
2023-02-21T18:29:24.374Z,966.83
2023-02-21T18:59:24.240Z,966.8
2023-02-21T19:29:23.843Z,966.8
2023-02-21T19:59:24.211Z,966.97
2023-02-21T20:29:23.921Z,967.11
2023-02-21T20:59:24.006Z,966.95
2023-02-21T21:29:24.536Z,966.89
2023-02-21T21:59:24.163Z,966.75
2023-02-21T22:29:23.672Z,966.71
2023-02-21T23:29:23.805Z,966.64
2023-02-21T23:59:24.283Z,966.42
